Air Quality Table

TIMESTAMP NO2 SO2 O3 PM10 PM2.5 CO TEMP HUM AIRPRES WS WD NO BENZENE
2023-02-03 01:00 57.37 µg/m3 2.13 µg/m3 0 µg/m3 25.5 µg/m3 15.98 µg/m3 0.63 mg/m3 12.86 °C 76.69 % 1,023.89 mbar 1 m/s 247.03 Deg 44.9 µg/m3 6.81 µg/m3
2023-02-02 01:00 53.3 µg/m3 2.07 µg/m3 28.61 µg/m3 53.6 µg/m3 18.84 µg/m3 0.59 mg/m3 12.21 °C 58.81 % 1,024.96 mbar 1.24 m/s 194.12 Deg 47.06 µg/m3 6.02 µg/m3
2023-02-01 01:00 22.84 µg/m3 0.99 µg/m3 61.19 µg/m3 27.01 µg/m3 9.81 µg/m3 0.27 mg/m3 13.75 °C 60.84 % 1,020.39 mbar 2.5 m/s 271.38 Deg 6 µg/m3 2.3 µg/m3
2023-01-31 01:00 45.31 µg/m3 2.16 µg/m3 39.02 µg/m3 42.57 µg/m3 16.24 µg/m3 0.62 mg/m3 12.73 °C 66.68 % 1,019.95 mbar 1.35 m/s 262.69 Deg 47.63 µg/m3 6.31 µg/m3
2023-01-30 01:00 22.5 µg/m3 0.99 µg/m3 53.35 µg/m3 31.09 µg/m3 9.58 µg/m3 0.37 mg/m3 11.52 °C 73.62 % 1,017.05 mbar 1.88 m/s 137.02 Deg 9.31 µg/m3 3.29 µg/m3
2023-01-29 01:00 43.23 µg/m3 1.38 µg/m3 37.16 µg/m3 11.48 µg/m3 7.59 µg/m3 0.45 mg/m3 10.25 °C 76.21 % 1,012.00 mbar 1.26 m/s 234.43 Deg 26.27 µg/m3 4.34 µg/m3
2023-01-28 01:00 40.52 µg/m3 1.13 µg/m3 39.66 µg/m3 16.39 µg/m3 8.51 µg/m3 0.46 mg/m3 11.66 °C 74.5 % 1,006.30 mbar 1.78 m/s 252.48 Deg 13 µg/m3 3.46 µg/m3
2023-01-27 01:00 43.82 µg/m3 1.46 µg/m3 37.82 µg/m3 38.85 µg/m3 14.17 µg/m3 0.61 mg/m3 11.08 °C 68.17 % 1,007.79 mbar 1.65 m/s 233.06 Deg 36.41 µg/m3 9.38 µg/m3
2023-01-26 01:00 57.19 µg/m3 1.79 µg/m3 26.26 µg/m3 59.74 µg/m3 21.32 µg/m3 0.77 mg/m3 11.95 °C 70.84 % 1,014.96 mbar 0.99 m/s 227.86 Deg 67.08 µg/m3 8.71 µg/m3
2023-01-25 01:00 50.57 µg/m3 1.55 µg/m3 29.62 µg/m3 23.82 µg/m3 11.19 µg/m3 0.53 mg/m3 11.32 °C 70.53 % 1,020.51 mbar 1.96 m/s 148.91 Deg 49.96 µg/m3 5.51 µg/m3
2023-01-24 01:00 52.39 µg/m3 2.05 µg/m3 30.42 µg/m3 51.03 µg/m3 18.73 µg/m3 0.77 mg/m3 11.26 °C 62.34 % 1,018.75 mbar 1.08 m/s 224.03 Deg 80.78 µg/m3 8.64 µg/m3
2023-01-23 01:00 26.36 µg/m3 0.84 µg/m3 47.86 µg/m3 17.4 µg/m3 7.36 µg/m3 0.3 mg/m3 10.65 °C 71.49 % 1,012.51 mbar 1.27 m/s 241.58 Deg 6.3 µg/m3 2.45 µg/m3
2023-01-22 01:00 19.78 µg/m3 0.8 µg/m3 56.61 µg/m3 32.97 µg/m3 10.03 µg/m3 0.25 mg/m3 12.4 °C 55.09 % 1,012.05 mbar 2.74 m/s 238.74 Deg 4 µg/m3 1.93 µg/m3
2023-01-21 01:00 22.68 µg/m3 0.9 µg/m3 46.41 µg/m3 29.73 µg/m3 10.65 µg/m3 0.23 mg/m3 12.72 °C 61.67 % 1,010.96 mbar 3.54 m/s 238.03 Deg 13.82 µg/m3 2.17 µg/m3
2023-01-20 01:00 36.71 µg/m3 0.85 µg/m3 3.38 µg/m3 22.72 µg/m3 7.83 µg/m3 0.32 mg/m3 12.14 °C 67.68 % 1,009.80 mbar 1.85 m/s 241.02 Deg 17.65 µg/m3 2.34 µg/m3
2023-01-19 01:00 23.1 µg/m3 0.6 µg/m3 31.09 µg/m3 208.64 µg/m3 66.32 µg/m3 0.27 mg/m3 17.39 °C 65.35 % 1,005.62 mbar 3.18 m/s 217.51 Deg 4.66 µg/m3 1.46 µg/m3
2023-01-18 01:00 13.95 µg/m3 0.58 µg/m3 64.57 µg/m3 133.61 µg/m3 39.96 µg/m3 0.18 mg/m3 17.3 °C 62.93 % 1,007.25 mbar 3.67 m/s 219.42 Deg 2.13 µg/m3 N/A
2023-01-17 01:00 32.98 µg/m3 0.81 µg/m3 54 µg/m3 31.74 µg/m3 13.84 µg/m3 0.32 mg/m3 16 °C 69.29 % 1,013.82 mbar 1.8 m/s 227.36 Deg 12.49 µg/m3 N/A
2023-01-16 01:00 27.21 µg/m3 0.73 µg/m3 52.49 µg/m3 18.32 µg/m3 8.56 µg/m3 0.32 mg/m3 15.28 °C 65.45 % 1,020.32 mbar 1.43 m/s 261.1 Deg 5.16 µg/m3 N/A
2023-01-15 01:00 30.39 µg/m3 0.69 µg/m3 43.76 µg/m3 25.46 µg/m3 11.72 µg/m3 0.3 mg/m3 15.68 °C 71.01 % 1,020.40 mbar 1.65 m/s 258.65 Deg 8.49 µg/m3 N/A
2023-01-14 01:00 46.33 µg/m3 1.2 µg/m3 26.75 µg/m3 31.28 µg/m3 12.83 µg/m3 0.45 mg/m3 14.92 °C 74.46 % 1,021.42 mbar 1.05 m/s 253.19 Deg 35.88 µg/m3 N/A
2023-01-13 01:00 32.97 µg/m3 1.01 µg/m3 43.7 µg/m3 23.74 µg/m3 11.76 µg/m3 0.38 mg/m3 15.29 °C 72.87 % 1,019.60 mbar 1.87 m/s 261.44 Deg 24.12 µg/m3 N/A
2023-01-12 01:00 24.94 µg/m3 0.8 µg/m3 54.73 µg/m3 29.54 µg/m3 9.27 µg/m3 0.28 mg/m3 15.09 °C 54.76 % 1,020.63 mbar 2.46 m/s 268.27 Deg 5.69 µg/m3 N/A
2023-01-11 01:00 14.3 µg/m3 0.6 µg/m3 66.57 µg/m3 29.78 µg/m3 10.27 µg/m3 0.05 mg/m3 15.18 °C 55.8 % 1,017.91 mbar 3.97 m/s 267.44 Deg 2.69 µg/m3 N/A
2023-01-10 01:00 31.25 µg/m3 1.08 µg/m3 47.05 µg/m3 39.25 µg/m3 17.11 µg/m3 0.43 mg/m3 15.89 °C 72.85 % 1,018.77 mbar 2.35 m/s 228.97 Deg 33.48 µg/m3 N/A
2023-01-09 01:00 34.47 µg/m3 0.83 µg/m3 26.07 µg/m3 22.15 µg/m3 14.53 µg/m3 0.48 mg/m3 14.65 °C 76.05 % 1,023.09 mbar 1.1 m/s 250.45 Deg 14.13 µg/m3 N/A
2023-01-08 01:00 40.8 µg/m3 1.12 µg/m3 31.12 µg/m3 36.87 µg/m3 24.15 µg/m3 0.57 mg/m3 14.94 °C 76.08 % 1,023.30 mbar 1.36 m/s 145.98 Deg 32.34 µg/m3 N/A
2023-01-07 01:00 46.29 µg/m3 1.53 µg/m3 23.78 µg/m3 45.51 µg/m3 27.96 µg/m3 0.7 mg/m3 14.65 °C 74.66 % 1,023.86 mbar 1.03 m/s 162.42 Deg 56.94 µg/m3 N/A
2023-01-06 01:00 47.05 µg/m3 1.07 µg/m3 26.87 µg/m3 41.02 µg/m3 23.29 µg/m3 0.53 mg/m3 14.84 °C 73.68 % 1,025.20 mbar 0.99 m/s 239.81 Deg 30.6 µg/m3 N/A
2023-01-05 01:00 44.01 µg/m3 1.07 µg/m3 25.66 µg/m3 45.3 µg/m3 26.22 µg/m3 0.56 mg/m3 16.3 °C 81.85 % 1,028.04 mbar 0.9 m/s 178.7 Deg 37.27 µg/m3 N/A

It is to be noted that the data is provisional and subject to quality assurance procedures. For validated data kindly refer your request to contact.air@era.org.mt